createdAt,value
2023-10-20T00:01:56.063Z,12.28
2023-10-20T00:07:01.923Z,12.30
2023-10-20T00:12:09.531Z,12.28
2023-10-20T00:17:14.360Z,12.33
2023-10-20T00:22:19.013Z,12.25
2023-10-20T00:27:25.000Z,12.15
2023-10-20T00:32:32.980Z,12.13
2023-10-20T00:37:38.952Z,12.09
2023-10-20T00:42:45.341Z,12.09
2023-10-20T00:47:50.739Z,12.01
2023-10-20T00:52:56.231Z,12.00
2023-10-20T00:58:02.693Z,11.99
2023-10-20T01:03:09.262Z,11.96
2023-10-20T01:08:18.277Z,11.97
2023-10-20T01:13:25.309Z,11.93
2023-10-20T01:18:30.295Z,11.92
2023-10-20T01:23:40.394Z,11.88
2023-10-20T01:28:48.001Z,11.91
2023-10-20T01:33:53.042Z,11.89
2023-10-20T01:38:58.977Z,11.89
2023-10-20T01:44:05.159Z,11.91
2023-10-20T01:49:10.259Z,11.88
2023-10-20T01:54:16.223Z,11.88
2023-10-20T01:59:22.810Z,11.91
2023-10-20T02:04:27.459Z,11.92
2023-10-20T02:09:36.029Z,11.89
2023-10-20T02:14:45.387Z,11.87
2023-10-20T02:19:53.234Z,11.91
2023-10-20T02:25:02.085Z,11.92
2023-10-20T02:30:10.215Z,11.92
2023-10-20T02:35:15.908Z,11.98
2023-10-20T02:40:20.830Z,11.93
2023-10-20T02:45:27.700Z,11.96
2023-10-20T02:50:33.590Z,12.02
2023-10-20T02:55:39.912Z,12.06
2023-10-20T03:00:47.645Z,12.07
2023-10-20T03:05:53.419Z,12.03
2023-10-20T03:10:58.227Z,12.08
2023-10-20T03:16:04.482Z,12.14
2023-10-20T03:21:12.032Z,12.19
2023-10-20T03:26:16.400Z,12.18
2023-10-20T03:31:23.794Z,12.19
2023-10-20T03:36:29.254Z,12.27
2023-10-20T03:41:37.919Z,12.19
2023-10-20T03:47:01.766Z,12.22
2023-10-20T03:52:08.613Z,12.17
2023-10-20T03:57:20.440Z,12.08
2023-10-20T04:02:39.350Z,11.98
2023-10-20T04:07:48.716Z,11.93
2023-10-20T04:13:05.747Z,11.83
2023-10-20T04:18:12.149Z,11.79
2023-10-20T04:23:17.223Z,11.83
2023-10-20T04:28:31.867Z,11.86
2023-10-20T04:34:11.574Z,11.83
2023-10-20T04:39:33.748Z,11.79
2023-10-20T04:45:00.640Z,11.77
2023-10-20T04:50:49.660Z,11.70
2023-10-20T04:56:02.563Z,11.56
2023-10-20T05:01:17.836Z,11.51
2023-10-20T05:06:59.857Z,11.48
2023-10-20T05:12:06.765Z,11.40
2023-10-20T05:17:23.066Z,11.32
2023-10-20T05:22:33.224Z,11.31
2023-10-20T05:27:42.893Z,11.21
2023-10-20T05:32:50.816Z,11.13
2023-10-20T05:37:57.413Z,11.19
2023-10-20T05:43:04.694Z,11.12
2023-10-20T05:48:12.400Z,11.03
2023-10-20T05:53:18.354Z,10.93
2023-10-20T05:58:23.556Z,10.84
2023-10-20T06:03:28.710Z,10.85
2023-10-20T06:08:38.226Z,10.83
2023-10-20T06:13:47.980Z,10.88
2023-10-20T06:18:52.140Z,10.89
2023-10-20T06:24:00.159Z,10.92
2023-10-20T06:29:22.893Z,10.85
2023-10-20T06:34:32.228Z,10.84
2023-10-20T06:39:41.759Z,10.89
2023-10-20T06:44:50.641Z,10.81
2023-10-20T06:49:59.204Z,10.86
2023-10-20T06:55:36.369Z,10.85
2023-10-20T07:00:36.077Z,10.90
2023-10-20T07:05:41.406Z,10.91
2023-10-20T07:10:48.993Z,10.89
2023-10-20T07:15:58.281Z,10.87
2023-10-20T07:21:05.010Z,10.84
2023-10-20T07:26:15.056Z,10.87
2023-10-20T07:31:23.113Z,10.86
2023-10-20T07:36:29.527Z,10.93
2023-10-20T07:41:36.851Z,10.91
2023-10-20T07:46:43.250Z,10.93
2023-10-20T07:51:47.572Z,11.00
2023-10-20T07:56:55.491Z,11.01
2023-10-20T08:02:00.735Z,11.01
2023-10-20T08:07:06.646Z,10.99
2023-10-20T08:12:15.387Z,11.04
2023-10-20T08:17:20.430Z,11.08
2023-10-20T08:22:28.194Z,11.11
2023-10-20T08:27:38.395Z,11.15
2023-10-20T08:32:43.967Z,11.25
2023-10-20T08:37:48.458Z,11.29
2023-10-20T08:42:57.497Z,11.29
2023-10-20T08:48:05.078Z,11.34
2023-10-20T08:53:14.950Z,11.35
2023-10-20T08:58:26.319Z,11.41
2023-10-20T09:03:40.617Z,11.35
2023-10-20T09:08:55.458Z,11.40
2023-10-20T09:14:03.149Z,11.40
2023-10-20T09:19:07.667Z,11.35
2023-10-20T09:24:14.292Z,11.35
2023-10-20T09:29:22.783Z,11.33
2023-10-20T09:34:28.667Z,11.33
2023-10-20T09:39:44.777Z,11.28
2023-10-20T09:45:07.956Z,11.27
2023-10-20T09:50:20.709Z,11.23
2023-10-20T09:55:29.205Z,11.22
2023-10-20T10:00:40.749Z,11.25
2023-10-20T10:05:47.116Z,11.25
2023-10-20T10:10:53.907Z,11.21
2023-10-20T10:16:03.052Z,11.26
2023-10-20T10:21:37.391Z,11.20
2023-10-20T10:26:52.597Z,11.16
2023-10-20T10:32:09.167Z,11.12
2023-10-20T10:37:15.367Z,11.09
2023-10-20T10:42:26.602Z,11.15
2023-10-20T10:47:46.546Z,11.21
2023-10-20T10:52:57.314Z,11.19
2023-10-20T10:58:04.642Z,11.20
2023-10-20T11:03:12.301Z,11.19
2023-10-20T11:08:20.234Z,11.21
2023-10-20T11:13:26.308Z,11.28
2023-10-20T11:18:36.748Z,11.32
2023-10-20T11:23:40.916Z,11.29
2023-10-20T11:28:46.664Z,11.31
2023-10-20T11:33:53.122Z,11.35
2023-10-20T11:39:02.842Z,11.44
2023-10-20T11:44:08.344Z,11.42
2023-10-20T11:49:14.346Z,11.42
2023-10-20T11:54:35.998Z,11.43
2023-10-20T11:59:40.964Z,11.35
2023-10-20T12:04:52.262Z,11.42
2023-10-20T12:09:57.071Z,11.33
2023-10-20T12:15:02.009Z,11.32
2023-10-20T12:20:36.024Z,11.21
2023-10-20T12:25:40.548Z,11.13
2023-10-20T12:30:46.344Z,11.07
2023-10-20T12:35:55.318Z,11.01
2023-10-20T12:40:59.683Z,10.94
2023-10-20T12:46:08.379Z,10.90
2023-10-20T12:51:16.350Z,10.97
2023-10-20T12:56:20.611Z,10.97
2023-10-20T13:01:25.873Z,10.97
2023-10-20T13:06:42.626Z,10.91
2023-10-20T13:11:57.541Z,10.90
2023-10-20T13:17:11.832Z,10.91
2023-10-20T13:22:17.493Z,10.93
2023-10-20T13:27:22.064Z,10.91
2023-10-20T13:32:26.639Z,10.89
2023-10-20T13:37:34.707Z,10.93
2023-10-20T13:42:39.833Z,10.94
2023-10-20T13:47:43.998Z,10.93
2023-10-20T13:52:50.243Z,10.96
2023-10-20T13:57:55.197Z,10.91
2023-10-20T14:03:01.083Z,10.87
2023-10-20T14:08:07.761Z,10.95
2023-10-20T14:13:14.051Z,11.01
2023-10-20T14:18:22.825Z,10.98
2023-10-20T14:23:34.647Z,11.02
2023-10-20T14:28:41.927Z,11.01
2023-10-20T14:33:50.445Z,11.02
2023-10-20T14:39:00.716Z,10.99
2023-10-20T14:44:09.057Z,11.05
2023-10-20T14:49:14.638Z,11.04
2023-10-20T14:54:25.082Z,11.03
2023-10-20T14:59:33.396Z,11.07
2023-10-20T15:04:47.175Z,11.09
2023-10-20T15:09:55.389Z,11.15
2023-10-20T15:15:02.302Z,11.19
2023-10-20T15:20:06.657Z,11.20
2023-10-20T15:25:13.765Z,11.22
2023-10-20T15:30:17.861Z,11.18
2023-10-20T15:35:28.105Z,11.13
2023-10-20T15:40:33.556Z,11.18
2023-10-20T15:45:39.733Z,11.15
2023-10-20T15:50:51.047Z,11.15
2023-10-20T15:55:57.224Z,11.25
2023-10-20T16:01:01.466Z,11.31
2023-10-20T16:06:13.283Z,11.23
2023-10-20T16:11:20.433Z,11.25
2023-10-20T16:16:25.237Z,11.22
2023-10-20T16:21:36.814Z,11.25
2023-10-20T16:26:42.140Z,11.27
2023-10-20T16:31:50.654Z,11.28
2023-10-20T16:36:54.583Z,11.29
2023-10-20T16:42:01.331Z,11.26
2023-10-20T16:47:05.666Z,11.31
2023-10-20T16:52:21.554Z,11.41
2023-10-20T16:57:27.384Z,11.40
2023-10-20T17:08:23.582Z,11.46
2023-10-20T17:13:31.597Z,11.42
2023-10-20T17:18:49.823Z,11.44
2023-10-20T17:23:57.155Z,11.55
2023-10-20T17:29:07.470Z,11.52
2023-10-20T17:34:15.249Z,11.54
2023-10-20T17:39:22.433Z,11.54
2023-10-20T17:44:30.525Z,11.60
2023-10-20T17:49:37.907Z,11.63
2023-10-20T17:54:44.777Z,11.61
2023-10-20T17:59:58.328Z,11.65
2023-10-20T18:05:03.581Z,11.67
2023-10-20T18:10:08.864Z,11.71
2023-10-20T18:15:15.688Z,11.74
2023-10-20T18:20:25.041Z,11.77
2023-10-20T18:25:32.737Z,11.83
2023-10-20T18:30:40.791Z,11.87
2023-10-20T18:35:46.186Z,11.88
2023-10-20T18:40:56.539Z,11.91
2023-10-20T18:46:04.675Z,11.95
2023-10-20T18:51:17.284Z,11.99
2023-10-20T18:56:26.969Z,12.03
2023-10-20T19:01:55.230Z,12.08
2023-10-20T19:07:13.100Z,12.15
2023-10-20T19:12:17.693Z,12.15
2023-10-20T19:17:23.342Z,12.16
2023-10-20T19:22:29.683Z,12.20
2023-10-20T19:27:33.812Z,12.20
2023-10-20T19:32:49.670Z,12.25
2023-10-20T19:37:54.571Z,12.28
2023-10-20T19:43:04.940Z,12.32
2023-10-20T19:48:25.015Z,12.35
2023-10-20T19:53:30.168Z,12.32
2023-10-20T19:58:44.383Z,12.35
2023-10-20T20:03:53.931Z,12.35
2023-10-20T20:09:01.246Z,12.37
2023-10-20T20:14:12.541Z,12.34
2023-10-20T20:19:27.614Z,12.43
2023-10-20T20:24:34.492Z,12.42
2023-10-20T20:30:00.090Z,12.51
2023-10-20T20:35:10.788Z,12.58
2023-10-20T20:40:15.914Z,12.61
2023-10-20T20:45:23.192Z,12.66
2023-10-20T20:50:33.610Z,12.66
2023-10-20T20:55:38.791Z,12.69
2023-10-20T21:00:47.058Z,12.79
2023-10-20T21:06:03.831Z,12.88
2023-10-20T21:11:10.035Z,12.93
2023-10-20T21:16:18.902Z,12.98
2023-10-20T21:21:31.370Z,13.07
2023-10-20T21:26:41.760Z,13.12
2023-10-20T21:31:49.868Z,13.21
2023-10-20T21:37:03.502Z,13.26
2023-10-20T21:42:08.208Z,13.35
2023-10-20T21:47:14.223Z,13.42
2023-10-20T21:52:29.669Z,13.46
2023-10-20T21:57:41.404Z,13.46
2023-10-20T22:02:48.305Z,13.44
2023-10-20T22:07:55.246Z,13.42
2023-10-20T22:12:59.590Z,13.36
2023-10-20T22:18:05.262Z,13.30
2023-10-20T22:23:11.981Z,13.28
2023-10-20T22:28:17.452Z,13.30
2023-10-20T22:33:24.898Z,13.34
2023-10-20T22:38:31.609Z,13.40
2023-10-20T22:43:36.793Z,13.48
2023-10-20T22:48:41.009Z,13.55
2023-10-20T22:53:50.549Z,13.64
2023-10-20T22:58:55.191Z,13.73
2023-10-20T23:03:59.754Z,13.80
2023-10-20T23:09:09.120Z,13.85
2023-10-20T23:14:16.351Z,13.90
2023-10-20T23:19:21.137Z,14.00
2023-10-20T23:24:26.290Z,14.08
2023-10-20T23:29:33.231Z,14.10
2023-10-20T23:34:37.869Z,14.10
2023-10-20T23:39:44.369Z,14.11
2023-10-20T23:44:52.781Z,14.10
2023-10-20T23:49:58.661Z,14.08
2023-10-20T23:55:05.429Z,14.08
